sensor_id;sensor_type;location;lat;lon;timestamp;P1;durP1;ratioP1;P2;durP2;ratioP2
69854;SDS011;57146;48.140;16.304;2023-03-23T11:25:05;4.22;;;0.80;;
69854;SDS011;57146;48.140;16.304;2023-03-23T11:27:31;3.85;;;1.10;;
69854;SDS011;57146;48.140;16.304;2023-03-23T11:30:18;4.68;;;1.30;;
69854;SDS011;57146;48.140;16.304;2023-03-23T11:32:44;4.80;;;1.65;;
69854;SDS011;57146;48.140;16.304;2023-03-23T11:35:18;4.93;;;1.40;;
69854;SDS011;57146;48.140;16.304;2023-03-23T11:37:48;4.00;;;1.48;;
69854;SDS011;57146;48.140;16.304;2023-03-23T11:40:19;7.18;;;1.95;;
69854;SDS011;57146;48.140;16.304;2023-03-23T11:42:49;5.68;;;1.73;;
69854;SDS011;57146;48.140;16.304;2023-03-23T11:50:28;5.55;;;1.88;;
69854;SDS011;57146;48.140;16.304;2023-03-23T11:56:12;5.70;;;2.08;;
69854;SDS011;57146;48.140;16.304;2023-03-23T11:58:57;5.68;;;2.05;;
69854;SDS011;57146;48.140;16.304;2023-03-23T12:12:07;7.77;;;2.50;;
69854;SDS011;57146;48.140;16.304;2023-03-23T12:15:14;7.05;;;2.45;;
69854;SDS011;57146;48.140;16.304;2023-03-23T12:36:36;5.32;;;1.70;;
69854;SDS011;57146;48.140;16.304;2023-03-23T12:44:35;6.80;;;2.20;;
69854;SDS011;57146;48.140;16.304;2023-03-23T12:47:12;6.20;;;2.15;;
69854;SDS011;57146;48.140;16.304;2023-03-23T12:49:56;9.40;;;2.47;;
69854;SDS011;57146;48.140;16.304;2023-03-23T12:52:33;10.25;;;2.45;;
69854;SDS011;57146;48.140;16.304;2023-03-23T12:55:05;6.75;;;2.25;;
69854;SDS011;57146;48.140;16.304;2023-03-23T13:03:06;7.38;;;1.88;;
69854;SDS011;57146;48.140;16.304;2023-03-23T13:05:54;6.00;;;1.80;;
69854;SDS011;57146;48.140;16.304;2023-03-23T13:08:35;5.63;;;2.10;;
69854;SDS011;57146;48.140;16.304;2023-03-23T13:11:08;7.83;;;2.47;;
69854;SDS011;57146;48.140;16.304;2023-03-23T13:16:14;4.80;;;2.10;;
69854;SDS011;57146;48.140;16.304;2023-03-23T13:19:44;8.23;;;2.00;;
69854;SDS011;57146;48.140;16.304;2023-03-23T13:24:43;9.40;;;1.70;;
69854;SDS011;57146;48.140;16.304;2023-03-23T13:27:24;6.28;;;2.00;;
69854;SDS011;57146;48.140;16.304;2023-03-23T13:29:50;4.65;;;1.50;;
69854;SDS011;57146;48.140;16.304;2023-03-23T13:32:17;6.87;;;1.60;;
69854;SDS011;57146;48.140;16.304;2023-03-23T13:34:47;5.07;;;1.42;;
69854;SDS011;57146;48.140;16.304;2023-03-23T13:37:23;5.38;;;1.50;;
69854;SDS011;57146;48.140;16.304;2023-03-23T13:39:56;4.35;;;1.00;;
69854;SDS011;57146;48.140;16.304;2023-03-23T13:45:05;3.58;;;1.10;;
69854;SDS011;57146;48.140;16.304;2023-03-23T13:47:44;4.75;;;1.17;;
69854;SDS011;57146;48.140;16.304;2023-03-23T14:08:42;4.85;;;1.17;;
69854;SDS011;57146;48.140;16.304;2023-03-23T14:14:00;4.13;;;1.42;;
69854;SDS011;57146;48.140;16.304;2023-03-23T14:16:39;5.40;;;1.27;;
69854;SDS011;57146;48.140;16.304;2023-03-23T14:19:14;4.85;;;1.30;;
69854;SDS011;57146;48.140;16.304;2023-03-23T14:22:04;3.67;;;1.05;;
69854;SDS011;57146;48.140;16.304;2023-03-23T14:24:30;4.95;;;1.00;;
69854;SDS011;57146;48.140;16.304;2023-03-23T14:27:10;5.63;;;0.98;;
69854;SDS011;57146;48.140;16.304;2023-03-23T14:29:36;4.20;;;0.98;;
69854;SDS011;57146;48.140;16.304;2023-03-23T14:32:02;4.30;;;1.00;;
69854;SDS011;57146;48.140;16.304;2023-03-23T14:34:33;5.10;;;1.02;;
69854;SDS011;57146;48.140;16.304;2023-03-23T14:37:00;4.30;;;0.73;;
69854;SDS011;57146;48.140;16.304;2023-03-23T14:39:28;5.93;;;0.80;;
69854;SDS011;57146;48.140;16.304;2023-03-23T14:41:56;3.35;;;0.75;;
69854;SDS011;57146;48.140;16.304;2023-03-23T14:44:33;4.07;;;0.70;;
69854;SDS011;57146;48.140;16.304;2023-03-23T14:47:04;3.92;;;1.00;;
69854;SDS011;57146;48.140;16.304;2023-03-23T14:49:34;3.45;;;0.70;;
69854;SDS011;57146;48.140;16.304;2023-03-23T14:52:12;3.22;;;0.60;;
69854;SDS011;57146;48.140;16.304;2023-03-23T14:54:40;4.85;;;0.60;;
69854;SDS011;57146;48.140;16.304;2023-03-23T14:57:16;4.35;;;0.77;;
69854;SDS011;57146;48.140;16.304;2023-03-23T14:59:45;8.57;;;1.08;;
69854;SDS011;57146;48.140;16.304;2023-03-23T15:02:23;6.40;;;1.17;;
69854;SDS011;57146;48.140;16.304;2023-03-23T15:04:51;6.35;;;1.20;;
69854;SDS011;57146;48.140;16.304;2023-03-23T15:07:21;5.07;;;1.05;;
69854;SDS011;57146;48.140;16.304;2023-03-23T15:09:56;4.70;;;0.73;;
69854;SDS011;57146;48.140;16.304;2023-03-23T15:12:24;5.15;;;1.25;;
69854;SDS011;57146;48.140;16.304;2023-03-23T15:14:55;2.70;;;0.90;;
69854;SDS011;57146;48.140;16.304;2023-03-23T15:17:30;9.65;;;1.30;;
69854;SDS011;57146;48.140;16.304;2023-03-23T15:20:07;5.05;;;0.98;;
69854;SDS011;57146;48.140;16.304;2023-03-23T15:22:47;3.45;;;0.90;;
69854;SDS011;57146;48.140;16.304;2023-03-23T15:30:30;3.58;;;1.08;;
69854;SDS011;57146;48.140;16.304;2023-03-23T15:35:32;3.25;;;1.00;;
69854;SDS011;57146;48.140;16.304;2023-03-23T15:38:01;5.22;;;1.00;;
69854;SDS011;57146;48.140;16.304;2023-03-23T15:40:32;2.90;;;0.80;;
69854;SDS011;57146;48.140;16.304;2023-03-23T15:43:20;4.40;;;1.20;;
69854;SDS011;57146;48.140;16.304;2023-03-23T15:48:30;4.70;;;1.33;;
69854;SDS011;57146;48.140;16.304;2023-03-23T15:51:11;4.90;;;1.25;;
69854;SDS011;57146;48.140;16.304;2023-03-23T15:53:40;3.40;;;1.15;;
69854;SDS011;57146;48.140;16.304;2023-03-23T15:56:07;4.32;;;1.15;;
69854;SDS011;57146;48.140;16.304;2023-03-23T15:58:35;4.63;;;1.13;;
69854;SDS011;57146;48.140;16.304;2023-03-23T16:01:05;4.40;;;1.17;;
69854;SDS011;57146;48.140;16.304;2023-03-23T16:03:42;4.50;;;1.38;;
69854;SDS011;57146;48.140;16.304;2023-03-23T16:06:13;4.15;;;1.60;;
69854;SDS011;57146;48.140;16.304;2023-03-23T16:08:51;5.43;;;1.70;;
69854;SDS011;57146;48.140;16.304;2023-03-23T16:11:46;5.18;;;1.50;;
69854;SDS011;57146;48.140;16.304;2023-03-23T16:14:14;4.47;;;1.55;;
69854;SDS011;57146;48.140;16.304;2023-03-23T16:16:43;6.38;;;1.50;;
69854;SDS011;57146;48.140;16.304;2023-03-23T16:19:16;5.80;;;1.35;;
69854;SDS011;57146;48.140;16.304;2023-03-23T16:21:43;5.70;;;1.17;;
69854;SDS011;57146;48.140;16.304;2023-03-23T16:24:12;5.13;;;1.60;;
69854;SDS011;57146;48.140;16.304;2023-03-23T16:26:39;4.82;;;1.80;;
69854;SDS011;57146;48.140;16.304;2023-03-23T16:29:13;4.90;;;1.98;;
69854;SDS011;57146;48.140;16.304;2023-03-23T16:32:01;6.32;;;2.13;;
69854;SDS011;57146;48.140;16.304;2023-03-23T16:34:30;5.38;;;1.95;;
69854;SDS011;57146;48.140;16.304;2023-03-23T16:36:58;8.27;;;1.90;;
69854;SDS011;57146;48.140;16.304;2023-03-23T16:39:25;5.20;;;1.70;;
69854;SDS011;57146;48.140;16.304;2023-03-23T16:41:54;7.22;;;2.33;;
69854;SDS011;57146;48.140;16.304;2023-03-23T16:44:21;5.45;;;2.17;;
69854;SDS011;57146;48.140;16.304;2023-03-23T16:46:48;5.10;;;2.05;;
69854;SDS011;57146;48.140;16.304;2023-03-23T16:49:16;8.43;;;2.03;;
69854;SDS011;57146;48.140;16.304;2023-03-23T16:51:43;6.00;;;2.33;;
69854;SDS011;57146;48.140;16.304;2023-03-23T16:54:10;8.95;;;2.17;;
69854;SDS011;57146;48.140;16.304;2023-03-23T16:56:37;7.32;;;2.65;;
69854;SDS011;57146;48.140;16.304;2023-03-23T16:59:04;5.50;;;1.83;;
69854;SDS011;57146;48.140;16.304;2023-03-23T17:01:31;5.05;;;1.88;;
69854;SDS011;57146;48.140;16.304;2023-03-23T17:04:23;6.72;;;2.00;;
69854;SDS011;57146;48.140;16.304;2023-03-23T17:06:51;5.88;;;2.03;;
69854;SDS011;57146;48.140;16.304;2023-03-23T17:09:18;7.57;;;2.38;;
69854;SDS011;57146;48.140;16.304;2023-03-23T17:11:45;7.05;;;2.03;;
69854;SDS011;57146;48.140;16.304;2023-03-23T17:14:12;8.80;;;2.13;;
69854;SDS011;57146;48.140;16.304;2023-03-23T17:16:40;8.77;;;1.77;;
69854;SDS011;57146;48.140;16.304;2023-03-23T17:19:07;8.15;;;2.22;;
69854;SDS011;57146;48.140;16.304;2023-03-23T17:21:34;6.93;;;2.33;;
69854;SDS011;57146;48.140;16.304;2023-03-23T17:24:03;6.05;;;2.10;;
69854;SDS011;57146;48.140;16.304;2023-03-23T17:26:30;5.93;;;2.05;;
69854;SDS011;57146;48.140;16.304;2023-03-23T17:28:57;8.82;;;2.10;;
69854;SDS011;57146;48.140;16.304;2023-03-23T17:31:25;10.27;;;2.20;;
69854;SDS011;57146;48.140;16.304;2023-03-23T17:33:52;9.18;;;2.40;;
69854;SDS011;57146;48.140;16.304;2023-03-23T17:36:20;7.30;;;2.38;;
69854;SDS011;57146;48.140;16.304;2023-03-23T17:38:48;11.80;;;2.63;;
69854;SDS011;57146;48.140;16.304;2023-03-23T17:41:16;8.90;;;2.72;;
69854;SDS011;57146;48.140;16.304;2023-03-23T17:43:44;8.85;;;2.22;;
69854;SDS011;57146;48.140;16.304;2023-03-23T17:46:11;8.95;;;2.30;;
69854;SDS011;57146;48.140;16.304;2023-03-23T17:48:40;7.55;;;2.05;;
69854;SDS011;57146;48.140;16.304;2023-03-23T17:51:08;5.45;;;1.80;;
69854;SDS011;57146;48.140;16.304;2023-03-23T17:53:38;5.63;;;2.00;;
69854;SDS011;57146;48.140;16.304;2023-03-23T17:56:06;6.50;;;2.35;;
69854;SDS011;57146;48.140;16.304;2023-03-23T17:58:36;10.38;;;2.67;;
69854;SDS011;57146;48.140;16.304;2023-03-23T18:01:04;8.40;;;2.40;;
69854;SDS011;57146;48.140;16.304;2023-03-23T18:03:35;6.93;;;2.28;;
69854;SDS011;57146;48.140;16.304;2023-03-23T18:06:04;8.25;;;2.50;;
69854;SDS011;57146;48.140;16.304;2023-03-23T18:08:36;6.35;;;2.38;;
69854;SDS011;57146;48.140;16.304;2023-03-23T18:11:05;8.68;;;2.80;;
69854;SDS011;57146;48.140;16.304;2023-03-23T18:13:34;8.30;;;2.80;;
69854;SDS011;57146;48.140;16.304;2023-03-23T18:16:03;6.72;;;2.75;;
69854;SDS011;57146;48.140;16.304;2023-03-23T18:18:31;7.90;;;2.95;;
69854;SDS011;57146;48.140;16.304;2023-03-23T18:21:02;9.90;;;2.88;;
69854;SDS011;57146;48.140;16.304;2023-03-23T18:23:34;13.85;;;4.10;;
69854;SDS011;57146;48.140;16.304;2023-03-23T18:26:13;16.80;;;3.63;;
69854;SDS011;57146;48.140;16.304;2023-03-23T18:28:42;10.87;;;3.20;;
69854;SDS011;57146;48.140;16.304;2023-03-23T18:31:11;9.75;;;3.05;;
69854;SDS011;57146;48.140;16.304;2023-03-23T18:34:07;10.82;;;3.47;;
69854;SDS011;57146;48.140;16.304;2023-03-23T18:36:39;15.25;;;3.63;;
69854;SDS011;57146;48.140;16.304;2023-03-23T18:39:07;8.57;;;3.63;;
69854;SDS011;57146;48.140;16.304;2023-03-23T18:41:37;9.57;;;3.10;;
69854;SDS011;57146;48.140;16.304;2023-03-23T18:44:05;9.50;;;3.22;;
69854;SDS011;57146;48.140;16.304;2023-03-23T18:46:33;11.48;;;3.60;;
69854;SDS011;57146;48.140;16.304;2023-03-23T18:49:02;7.85;;;3.30;;
69854;SDS011;57146;48.140;16.304;2023-03-23T18:51:29;9.70;;;3.70;;
69854;SDS011;57146;48.140;16.304;2023-03-23T18:53:58;10.10;;;4.60;;
69854;SDS011;57146;48.140;16.304;2023-03-23T18:56:26;14.10;;;4.57;;
69854;SDS011;57146;48.140;16.304;2023-03-23T18:58:53;11.07;;;4.05;;
69854;SDS011;57146;48.140;16.304;2023-03-23T19:01:22;13.48;;;3.85;;
69854;SDS011;57146;48.140;16.304;2023-03-23T19:03:50;10.80;;;4.07;;
69854;SDS011;57146;48.140;16.304;2023-03-23T19:06:21;12.07;;;3.97;;
69854;SDS011;57146;48.140;16.304;2023-03-23T19:08:52;13.45;;;4.00;;
69854;SDS011;57146;48.140;16.304;2023-03-23T19:11:20;11.88;;;4.00;;
69854;SDS011;57146;48.140;16.304;2023-03-23T19:13:50;9.18;;;3.67;;
69854;SDS011;57146;48.140;16.304;2023-03-23T19:16:42;9.65;;;3.63;;
69854;SDS011;57146;48.140;16.304;2023-03-23T19:19:10;9.93;;;3.53;;
69854;SDS011;57146;48.140;16.304;2023-03-23T19:21:41;8.93;;;3.78;;
69854;SDS011;57146;48.140;16.304;2023-03-23T19:24:14;8.20;;;2.72;;
69854;SDS011;57146;48.140;16.304;2023-03-23T19:26:42;9.15;;;2.90;;
69854;SDS011;57146;48.140;16.304;2023-03-23T19:29:15;7.72;;;2.55;;
69854;SDS011;57146;48.140;16.304;2023-03-23T19:31:54;9.83;;;2.50;;
69854;SDS011;57146;48.140;16.304;2023-03-23T19:34:30;7.07;;;2.25;;
69854;SDS011;57146;48.140;16.304;2023-03-23T19:37:22;7.22;;;2.35;;
69854;SDS011;57146;48.140;16.304;2023-03-23T19:39:51;6.15;;;2.40;;
69854;SDS011;57146;48.140;16.304;2023-03-23T19:42:23;6.95;;;2.70;;
69854;SDS011;57146;48.140;16.304;2023-03-23T19:44:53;7.30;;;2.67;;
69854;SDS011;57146;48.140;16.304;2023-03-23T19:47:20;8.15;;;2.08;;
69854;SDS011;57146;48.140;16.304;2023-03-23T19:49:49;6.47;;;2.38;;
69854;SDS011;57146;48.140;16.304;2023-03-23T19:52:17;8.20;;;2.30;;
69854;SDS011;57146;48.140;16.304;2023-03-23T19:54:48;6.47;;;2.28;;
69854;SDS011;57146;48.140;16.304;2023-03-23T19:57:18;8.07;;;2.00;;
69854;SDS011;57146;48.140;16.304;2023-03-23T19:59:49;6.22;;;2.10;;
69854;SDS011;57146;48.140;16.304;2023-03-23T20:02:17;6.28;;;2.20;;
69854;SDS011;57146;48.140;16.304;2023-03-23T20:04:45;8.88;;;2.33;;
69854;SDS011;57146;48.140;16.304;2023-03-23T20:07:15;7.75;;;2.35;;
69854;SDS011;57146;48.140;16.304;2023-03-23T20:09:46;6.70;;;2.17;;
69854;SDS011;57146;48.140;16.304;2023-03-23T20:12:15;5.80;;;2.20;;
69854;SDS011;57146;48.140;16.304;2023-03-23T20:14:43;6.35;;;2.00;;
69854;SDS011;57146;48.140;16.304;2023-03-23T20:17:12;6.10;;;2.38;;
69854;SDS011;57146;48.140;16.304;2023-03-23T20:19:40;5.93;;;2.28;;
69854;SDS011;57146;48.140;16.304;2023-03-23T20:22:10;6.30;;;2.40;;
69854;SDS011;57146;48.140;16.304;2023-03-23T20:24:40;7.13;;;2.50;;
69854;SDS011;57146;48.140;16.304;2023-03-23T20:27:09;6.07;;;2.40;;
69854;SDS011;57146;48.140;16.304;2023-03-23T20:29:37;8.00;;;2.55;;
69854;SDS011;57146;48.140;16.304;2023-03-23T20:32:07;8.35;;;2.83;;
69854;SDS011;57146;48.140;16.304;2023-03-23T20:34:36;6.93;;;2.50;;
69854;SDS011;57146;48.140;16.304;2023-03-23T20:37:04;9.32;;;3.38;;
69854;SDS011;57146;48.140;16.304;2023-03-23T20:39:32;9.35;;;2.92;;
69854;SDS011;57146;48.140;16.304;2023-03-23T20:42:01;8.55;;;3.53;;
69854;SDS011;57146;48.140;16.304;2023-03-23T20:44:54;9.07;;;3.40;;
69854;SDS011;57146;48.140;16.304;2023-03-23T20:47:23;9.53;;;3.10;;
69854;SDS011;57146;48.140;16.304;2023-03-23T20:49:50;8.15;;;3.22;;
69854;SDS011;57146;48.140;16.304;2023-03-23T20:52:20;10.85;;;3.25;;
69854;SDS011;57146;48.140;16.304;2023-03-23T20:54:49;10.15;;;3.55;;
69854;SDS011;57146;48.140;16.304;2023-03-23T20:57:17;8.32;;;3.00;;
69854;SDS011;57146;48.140;16.304;2023-03-23T20:59:50;7.57;;;2.83;;
69854;SDS011;57146;48.140;16.304;2023-03-23T21:02:19;9.00;;;3.22;;
69854;SDS011;57146;48.140;16.304;2023-03-23T21:04:48;7.85;;;3.40;;
69854;SDS011;57146;48.140;16.304;2023-03-23T21:07:16;9.23;;;3.47;;
69854;SDS011;57146;48.140;16.304;2023-03-23T21:09:43;12.18;;;6.07;;
69854;SDS011;57146;48.140;16.304;2023-03-23T21:12:11;14.90;;;4.93;;
69854;SDS011;57146;48.140;16.304;2023-03-23T21:14:39;9.38;;;3.78;;
69854;SDS011;57146;48.140;16.304;2023-03-23T21:17:06;9.65;;;4.10;;
69854;SDS011;57146;48.140;16.304;2023-03-23T21:19:35;9.93;;;3.45;;
69854;SDS011;57146;48.140;16.304;2023-03-23T21:22:28;8.68;;;3.75;;
69854;SDS011;57146;48.140;16.304;2023-03-23T21:24:57;9.40;;;3.37;;
69854;SDS011;57146;48.140;16.304;2023-03-23T21:27:24;9.65;;;3.65;;
69854;SDS011;57146;48.140;16.304;2023-03-23T21:29:54;8.98;;;3.65;;
69854;SDS011;57146;48.140;16.304;2023-03-23T21:32:23;9.88;;;3.97;;
69854;SDS011;57146;48.140;16.304;2023-03-23T21:34:51;8.82;;;3.60;;
69854;SDS011;57146;48.140;16.304;2023-03-23T21:37:18;9.47;;;3.53;;
69854;SDS011;57146;48.140;16.304;2023-03-23T21:39:44;8.77;;;3.60;;
69854;SDS011;57146;48.140;16.304;2023-03-23T21:42:12;10.85;;;3.83;;
69854;SDS011;57146;48.140;16.304;2023-03-23T21:44:39;11.07;;;3.25;;
69854;SDS011;57146;48.140;16.304;2023-03-23T21:47:07;8.55;;;2.80;;
69854;SDS011;57146;48.140;16.304;2023-03-23T21:49:35;8.27;;;2.50;;
69854;SDS011;57146;48.140;16.304;2023-03-23T21:52:08;8.23;;;2.58;;
69854;SDS011;57146;48.140;16.304;2023-03-23T21:54:35;6.82;;;2.50;;
69854;SDS011;57146;48.140;16.304;2023-03-23T21:57:02;7.20;;;2.25;;
69854;SDS011;57146;48.140;16.304;2023-03-23T21:59:29;6.22;;;2.40;;
69854;SDS011;57146;48.140;16.304;2023-03-23T22:01:58;7.97;;;2.20;;
69854;SDS011;57146;48.140;16.304;2023-03-23T22:04:25;7.57;;;2.80;;
69854;SDS011;57146;48.140;16.304;2023-03-23T22:06:53;6.90;;;2.42;;
69854;SDS011;57146;48.140;16.304;2023-03-23T22:09:20;6.50;;;2.28;;
69854;SDS011;57146;48.140;16.304;2023-03-23T22:11:47;7.35;;;2.38;;
69854;SDS011;57146;48.140;16.304;2023-03-23T22:14:14;7.40;;;2.83;;
69854;SDS011;57146;48.140;16.304;2023-03-23T22:16:42;6.75;;;2.45;;
69854;SDS011;57146;48.140;16.304;2023-03-23T22:19:09;7.10;;;2.90;;
69854;SDS011;57146;48.140;16.304;2023-03-23T22:21:36;6.90;;;2.85;;
69854;SDS011;57146;48.140;16.304;2023-03-23T22:24:03;8.60;;;3.05;;
69854;SDS011;57146;48.140;16.304;2023-03-23T22:26:31;8.77;;;3.40;;
69854;SDS011;57146;48.140;16.304;2023-03-23T22:28:59;8.27;;;3.67;;
69854;SDS011;57146;48.140;16.304;2023-03-23T22:31:28;8.38;;;3.70;;
69854;SDS011;57146;48.140;16.304;2023-03-23T22:34:00;10.07;;;3.70;;
69854;SDS011;57146;48.140;16.304;2023-03-23T22:36:29;9.32;;;3.95;;
69854;SDS011;57146;48.140;16.304;2023-03-23T22:39:01;11.83;;;5.20;;
69854;SDS011;57146;48.140;16.304;2023-03-23T22:41:30;12.57;;;4.93;;
69854;SDS011;57146;48.140;16.304;2023-03-23T22:44:01;10.45;;;4.10;;
69854;SDS011;57146;48.140;16.304;2023-03-23T22:46:32;12.45;;;4.40;;
69854;SDS011;57146;48.140;16.304;2023-03-23T22:48:59;11.50;;;4.72;;
69854;SDS011;57146;48.140;16.304;2023-03-23T22:51:26;9.50;;;4.50;;
69854;SDS011;57146;48.140;16.304;2023-03-23T22:53:53;9.35;;;4.03;;
69854;SDS011;57146;48.140;16.304;2023-03-23T22:56:22;10.77;;;4.53;;
69854;SDS011;57146;48.140;16.304;2023-03-23T22:58:50;8.77;;;3.70;;
69854;SDS011;57146;48.140;16.304;2023-03-23T23:01:19;9.15;;;3.58;;
69854;SDS011;57146;48.140;16.304;2023-03-23T23:03:48;7.80;;;3.43;;
69854;SDS011;57146;48.140;16.304;2023-03-23T23:06:15;9.15;;;3.25;;
69854;SDS011;57146;48.140;16.304;2023-03-23T23:08:44;11.00;;;3.40;;
69854;SDS011;57146;48.140;16.304;2023-03-23T23:11:14;8.75;;;2.97;;
69854;SDS011;57146;48.140;16.304;2023-03-23T23:13:42;7.00;;;2.63;;
69854;SDS011;57146;48.140;16.304;2023-03-23T23:16:11;6.83;;;2.50;;
69854;SDS011;57146;48.140;16.304;2023-03-23T23:18:38;9.50;;;2.95;;
69854;SDS011;57146;48.140;16.304;2023-03-23T23:21:07;9.15;;;2.75;;
69854;SDS011;57146;48.140;16.304;2023-03-23T23:23:36;8.48;;;3.17;;
69854;SDS011;57146;48.140;16.304;2023-03-23T23:26:03;13.02;;;3.33;;
69854;SDS011;57146;48.140;16.304;2023-03-23T23:28:31;9.33;;;3.37;;
69854;SDS011;57146;48.140;16.304;2023-03-23T23:30:58;8.68;;;3.00;;
69854;SDS011;57146;48.140;16.304;2023-03-23T23:33:25;9.90;;;3.45;;
69854;SDS011;57146;48.140;16.304;2023-03-23T23:35:52;7.55;;;3.40;;
69854;SDS011;57146;48.140;16.304;2023-03-23T23:38:20;8.90;;;3.45;;
69854;SDS011;57146;48.140;16.304;2023-03-23T23:40:48;8.23;;;3.57;;
69854;SDS011;57146;48.140;16.304;2023-03-23T23:43:15;9.20;;;3.28;;
69854;SDS011;57146;48.140;16.304;2023-03-23T23:45:42;8.80;;;3.38;;
69854;SDS011;57146;48.140;16.304;2023-03-23T23:48:10;8.43;;;3.67;;
69854;SDS011;57146;48.140;16.304;2023-03-23T23:50:37;9.75;;;3.58;;
69854;SDS011;57146;48.140;16.304;2023-03-23T23:53:04;6.93;;;3.03;;
69854;SDS011;57146;48.140;16.304;2023-03-23T23:55:31;8.52;;;3.47;;
69854;SDS011;57146;48.140;16.304;2023-03-23T23:57:58;7.95;;;3.10;;
